Time;durP1;ratioP1;P1;durP2;ratioP2;P2;SDS_P1;SDS_P2;PMS_P1;PMS_P2;Temp;Humidity;BMP_temperature;BMP_pressure;BME280_temperature;BME280_humidity;BME280_pressure;Samples;Min_cycle;Max_cycle;Signal;HPM_P1;HPM_P2
2023/08/20 00:00:49;;;;;;;16.50;11.82;;;;;;;-144.30;63.76;84187.97;5141927;27;20237;-45
2023/08/20 00:03:41;;;;;;;15.02;13.32;;;;;;;-144.30;64.79;84162.16;5146011;27;20308;-56
2023/08/20 00:09:46;;;;;;;14.88;13.30;;;;;;;-144.30;62.54;84209.84;5144708;27;20647;-56
2023/08/20 00:16:03;;;;;;;;;;;;;;;;;;;;;
2023/08/20 00:22:11;;;;;;;13.75;11.00;;;;;;;-144.30;60.40;84724.56;5144914;27;20749;-45
2023/08/20 00:28:34;;;;;;;;;;;;;;;;;;;;;
2023/08/20 00:31:48;;;;;;;12.88;11.57;;;;;;;-144.30;60.53;84215.78;5146373;27;20199;-45
2023/08/20 00:34:50;;;;;;;13.88;12.38;;;;;;;-144.30;60.47;84213.81;5144872;27;20224;-56
2023/08/20 00:37:34;;;;;;;13.52;12.32;;;;;;;-144.30;60.80;84182.00;5128587;27;20627;-52
2023/08/20 00:40:46;;;;;;;14.20;12.30;;;;;;;-144.30;59.70;84209.84;5131700;27;20750;-56
2023/08/20 00:58:47;;;;;;;14.52;12.98;;;;;;;-144.30;59.92;84255.53;5130494;27;20258;-55
2023/08/20 01:01:21;;;;;;;16.02;14.32;;;;;;;-144.30;59.33;84223.75;5131518;27;20630;-56
2023/08/20 01:04:26;;;;;;;14.10;12.43;;;;;;;-144.30;58.28;84219.78;5130272;27;20221;-46
2023/08/20 01:07:31;;;;;;;13.00;11.80;;;;;;;-144.30;57.85;84168.09;5132172;27;20197;-56
2023/08/20 01:10:39;;;;;;;13.93;12.52;;;;;;;-144.30;58.01;84176.06;5132282;27;20541;-56
2023/08/20 01:13:39;;;;;;;15.07;11.85;;;;;;;-144.30;58.21;84283.38;5131406;27;20194;-45
2023/08/20 01:16:49;;;;;;;14.10;12.70;;;;;;;-144.30;58.59;84297.28;5131381;27;20608;-44
2023/08/20 01:19:55;;;;;;;14.75;12.27;;;;;;;-144.30;58.38;84213.81;5129620;27;20210;-45
2023/08/20 01:23:05;;;;;;;14.40;12.88;;;;;;;-144.30;58.25;84281.38;5130173;27;20194;-45
2023/08/20 01:32:31;;;;;;;;;;;;;;;;;;;;;
2023/08/20 01:35:10;;;;;;;15.43;12.45;;;;;;;-144.30;57.46;84247.59;5131046;27;20204;-45
2023/08/20 01:38:05;;;;;;;14.15;12.93;;;;;;;-144.30;57.71;84269.47;5131014;27;20198;-44
2023/08/20 01:40:54;;;;;;;16.85;13.32;;;;;;;-144.30;57.91;84237.66;5130496;27;20200;-56
2023/08/20 01:46:50;;;;;;;13.68;11.88;;;;;;;-144.30;57.91;84303.25;5127322;27;20565;-56
2023/08/20 02:01:47;;;;;;;15.18;13.50;;;;;;;-144.30;58.37;84293.31;5130781;27;20194;-56
2023/08/20 02:04:44;;;;;;;16.58;13.90;;;;;;;-144.30;58.31;84271.44;5131079;27;20217;-56
2023/08/20 02:07:55;;;;;;;15.52;13.93;;;;;;;-144.30;58.15;84289.31;5129130;27;20198;-56
2023/08/20 02:13:57;;;;;;;18.67;13.77;;;;;;;-144.30;58.81;84287.34;5128656;27;20225;-45
2023/08/20 02:17:05;;;;;;;14.85;13.40;;;;;;;-144.30;58.83;84307.22;5130943;27;20189;-45
2023/08/20 02:20:17;;;;;;;13.65;12.45;;;;;;;-144.30;58.24;84283.38;5130305;27;20198;-45
2023/08/20 02:23:04;;;;;;;14.00;12.70;;;;;;;-144.30;58.15;84289.31;5128303;27;20674;-45
2023/08/20 02:26:00;;;;;;;15.88;12.98;;;;;;;-144.30;57.91;84281.38;5130317;27;20225;-55
2023/08/20 02:29:03;;;;;;;14.38;12.90;;;;;;;-144.30;57.67;84295.28;5130393;27;20623;-44
2023/08/20 02:32:00;;;;;;;13.30;12.10;;;;;;;-144.30;57.62;84323.13;5130253;27;20666;-44
2023/08/20 02:37:58;;;;;;;18.83;12.77;;;;;;;-144.30;57.33;84307.22;5128799;27;20282;-44
2023/08/20 02:44:13;;;;;;;13.63;12.27;;;;;;;-144.30;57.52;84370.81;5129201;27;20552;-45
2023/08/20 02:53:26;;;;;;;14.98;11.70;;;;;;;-144.30;57.78;84366.84;5129101;27;20213;-44
2023/08/20 02:59:44;;;;;;;16.15;12.25;;;;;;;-144.30;57.65;84335.03;5113074;27;20212;-45
2023/08/20 03:02:30;;;;;;;12.05;10.98;;;;;;;-144.30;57.59;84311.19;5109245;28;20198;-56
2023/08/20 03:05:16;;;;;;;12.68;11.40;;;;;;;-144.30;57.62;84342.97;5109376;28;20326;-46
2023/08/20 03:07:46;;;;;;;13.73;10.88;;;;;;;-144.30;57.14;84315.16;5109271;28;20198;-57
2023/08/20 03:10:14;;;;;;;12.88;11.38;;;;;;;-144.30;57.21;84315.16;5109204;28;20244;-56
2023/08/20 03:12:43;;;;;;;11.98;10.77;;;;;;;-144.30;57.41;84315.16;5127443;27;20848;-45
2023/08/20 03:15:22;;;;;;;24.45;11.32;;;;;;;-144.30;57.40;84342.97;5114205;27;20199;-46
2023/08/20 03:17:56;;;;;;;14.07;10.95;;;;;;;-144.30;57.74;84303.25;5109419;28;20209;-45
2023/08/20 03:20:28;;;;;;;12.98;11.52;;;;;;;-144.30;57.89;84378.75;5109845;28;20639;-56
2023/08/20 03:23:20;;;;;;;10.90;9.98;;;;;;;-144.30;58.05;84337.03;5109038;28;20201;-45
2023/08/20 03:32:11;;;;;;;12.10;10.50;;;;;;;-144.30;58.03;84360.88;5106115;28;20577;-45
2023/08/20 03:34:42;;;;;;;11.85;10.65;;;;;;;-144.30;57.62;84317.16;5120353;28;20734;-45
2023/08/20 03:37:13;;;;;;;10.95;9.95;;;;;;;-144.30;57.46;84323.13;5129117;28;20250;-46
2023/08/20 03:39:42;;;;;;;12.45;9.65;;;;;;;-144.30;57.53;84342.97;5129097;28;20201;-45
2023/08/20 03:42:32;;;;;;;10.70;9.48;;;;;;;-144.30;57.65;84358.88;5129257;28;20197;-46
2023/08/20 03:48:00;;;;;;;11.15;9.48;;;;;;;-144.30;57.26;84323.13;5126781;28;20209;-55
2023/08/20 03:50:31;;;;;;;9.65;8.85;;;;;;;-144.30;57.14;84358.88;5119353;28;20201;-54
2023/08/20 03:53:16;;;;;;;10.20;9.30;;;;;;;-144.30;56.85;84323.13;5126064;28;20204;-55
2023/08/20 03:56:03;;;;;;;10.40;9.23;;;;;;;-144.30;56.75;84044.91;5127834;28;20247;-56
2023/08/20 03:58:43;;;;;;;16.08;9.75;;;;;;;-144.30;56.91;84311.19;5128682;28;20594;-56
2023/08/20 04:01:26;;;;;;;10.07;9.18;;;;;;;-144.30;56.93;84309.19;5128651;28;20670;-45
2023/08/20 04:04:00;;;;;;;13.32;9.52;;;;;;;-144.30;57.18;84311.19;5129566;28;20198;-55
2023/08/20 04:06:41;;;;;;;12.52;10.52;;;;;;;-144.30;57.21;84331.06;5129283;28;20214;-56
2023/08/20 04:09:09;;;;;;;11.20;10.20;;;;;;;-144.30;57.57;84305.22;5129452;27;20202;-45
2023/08/20 04:11:51;;;;;;;11.40;10.38;;;;;;;-144.30;58.02;84321.13;5132594;27;20198;-45
2023/08/20 04:14:19;;;;;;;11.27;10.00;;;;;;;-144.30;57.85;84350.94;5133538;27;20293;-44
2023/08/20 04:16:59;;;;;;;12.45;10.32;;;;;;;-144.30;57.96;84374.78;5132981;27;20228;-58
2023/08/20 04:19:37;;;;;;;12.15;10.55;;;;;;;-144.30;57.65;84335.03;5129939;27;20681;-57
2023/08/20 04:22:27;;;;;;;12.52;10.40;;;;;;;-144.30;57.45;84323.13;5132819;27;20674;-45
2023/08/20 04:25:00;;;;;;;10.23;9.43;;;;;;;-144.30;57.43;84311.19;5132339;27;20295;-47
2023/08/20 04:27:40;;;;;;;11.15;10.15;;;;;;;-144.30;57.21;84339.00;5132992;27;20198;-57
2023/08/20 04:30:24;;;;;;;10.75;9.70;;;;;;;-144.30;56.93;84331.06;5132869;27;20205;-58
2023/08/20 04:32:55;;;;;;;16.67;14.82;;;;;;;-144.30;56.58;84263.50;5132147;27;20202;-57
2023/08/20 04:35:39;;;;;;;10.38;9.43;;;;;;;-144.30;56.25;84263.50;5132738;27;20668;-46
2023/08/20 04:38:20;;;;;;;10.55;9.50;;;;;;;-144.30;56.06;84275.41;5132873;27;20560;-46
2023/08/20 04:41:01;;;;;;;15.02;11.77;;;;;;;-144.30;55.67;84245.59;5132501;27;20198;-46
2023/08/20 04:43:33;;;;;;;13.57;12.20;;;;;;;-144.30;55.30;84253.56;5131268;27;20448;-57
2023/08/20 04:46:09;;;;;;;13.10;9.52;;;;;;;-144.30;55.26;84243.63;5132405;27;20217;-56
2023/08/20 04:48:46;;;;;;;9.43;8.77;;;;;;;-144.30;55.17;84221.75;5132402;27;20196;-56
2023/08/20 04:51:16;;;;;;;9.63;8.82;;;;;;;-144.30;55.58;84168.09;5132457;27;20204;-55
2023/08/20 04:53:50;;;;;;;9.63;8.80;;;;;;;-144.30;55.71;84281.38;5131176;27;20198;-56
2023/08/20 04:56:29;;;;;;;11.43;8.77;;;;;;;-144.30;55.48;84211.81;5132453;27;20587;-56
2023/08/20 04:59:29;;;;;;;10.95;8.85;;;;;;;-144.30;55.39;84253.56;5130992;27;20711;-55
2023/08/20 05:02:12;;;;;;;12.13;9.07;;;;;;;-144.30;55.10;84253.56;5132444;27;20701;-55
2023/08/20 05:04:58;;;;;;;8.95;8.25;;;;;;;-144.30;55.09;84193.94;5129529;27;20202;-46
2023/08/20 05:07:32;;;;;;;12.45;9.82;;;;;;;-144.30;54.45;84187.97;5132093;27;20194;-55
2023/08/20 05:10:09;;;;;;;23.60;16.08;;;;;;;-144.30;54.23;84193.94;5131009;27;20200;-55
2023/08/20 05:12:54;;;;;;;17.17;14.75;;;;;;;-144.30;53.76;84191.94;5131928;27;20201;-56
2023/08/20 05:15:28;;;;;;;12.32;11.07;;;;;;;-144.30;53.95;84184.00;5124127;27;20273;-46
2023/08/20 05:17:58;;;;;;;18.55;15.38;;;;;;;-144.30;53.51;84096.56;5131635;27;20204;-46
2023/08/20 05:20:34;;;;;;;10.77;9.75;;;;;;;-144.30;53.65;84138.28;5132041;27;20198;-46
2023/08/20 05:23:09;;;;;;;11.52;10.50;;;;;;;-144.30;53.40;84100.53;5131575;27;20219;-56
2023/08/20 05:25:42;;;;;;;15.70;14.02;;;;;;;-144.30;52.98;84114.44;5130730;27;20320;-46
2023/08/20 05:28:11;;;;;;;13.35;12.00;;;;;;;-144.30;52.61;84036.94;5131152;27;20194;-45
2023/08/20 05:30:51;;;;;;;31.10;22.35;;;;;;;-144.30;52.37;84076.69;5131708;27;20232;-46
2023/08/20 05:33:23;;;;;;;14.18;12.77;;;;;;;-144.30;52.44;84060.78;5131041;27;20185;-46
2023/08/20 05:36:18;;;;;;;12.80;11.60;;;;;;;-144.30;52.33;84021.06;5112728;27;20233;-46
2023/08/20 05:38:49;;;;;;;14.63;13.10;;;;;;;-144.30;52.11;84048.88;5131063;27;20201;-55
2023/08/20 05:41:18;;;;;;;17.95;13.48;;;;;;;-144.30;52.00;83969.38;5131322;27;20250;-46
2023/08/20 05:43:45;;;;;;;12.70;11.40;;;;;;;-144.30;52.31;84040.91;5131023;27;20574;-56
2023/08/20 05:46:12;;;;;;;12.20;11.05;;;;;;;-144.30;52.54;84021.06;5129696;27;20695;-46
2023/08/20 05:48:39;;;;;;;18.00;14.68;;;;;;;-144.30;52.38;84007.16;5126981;27;20241;-46
2023/08/20 05:51:07;;;;;;;14.90;12.55;;;;;;;-144.30;52.25;83995.22;5130645;27;20190;-46
2023/08/20 05:53:35;;;;;;;12.63;11.10;;;;;;;-144.30;51.68;83937.59;5130353;27;20204;-47
2023/08/20 05:56:02;;;;;;;14.15;11.30;;;;;;;-144.30;51.45;83883.94;5127188;27;20186;-45
2023/08/20 05:58:30;;;;;;;13.00;11.70;;;;;;;-144.30;51.05;83881.97;5130219;27;20198;-56
2023/08/20 06:00:57;;;;;;;13.18;11.98;;;;;;;-144.30;49.43;83770.69;5129485;27;20662;-55
2023/08/20 06:03:28;;;;;;;21.73;17.27;;;;;;;-144.30;47.19;83581.91;5129878;27;20254;-55
2023/08/20 06:05:57;;;;;;;15.10;13.63;;;;;;;-144.30;44.93;83405.09;5123900;27;20760;-47
2023/08/20 06:08:25;;;;;;;18.85;15.15;;;;;;;-144.30;43.41;83295.81;5127829;27;20588;-47
2023/08/20 06:10:54;;;;;;;21.25;14.02;;;;;;;-144.30;41.56;83150.78;5129770;27;20588;-46
2023/08/20 06:13:21;;;;;;;20.45;16.15;;;;;;;-144.30;40.76;83130.94;5129411;27;20259;-47
2023/08/20 06:15:51;;;;;;;13.73;12.32;;;;;;;-144.30;41.06;83128.94;5125217;27;20664;-46
2023/08/20 06:18:31;;;;;;;13.98;11.32;;;;;;;-144.30;42.00;83270.00;5127545;27;20651;-47
2023/08/20 06:20:58;;;;;;;11.75;10.50;;;;;;;-144.30;42.77;83264.03;5127194;27;20294;-56
2023/08/20 06:23:26;;;;;;;13.27;11.30;;;;;;;-144.30;43.01;83309.72;5130043;27;20634;-56
2023/08/20 06:25:53;;;;;;;12.05;10.85;;;;;;;-144.30;42.54;83242.19;5129151;27;20221;-56
2023/08/20 06:28:20;;;;;;;12.90;11.60;;;;;;;-144.30;41.76;83162.72;5127436;27;20635;-46
2023/08/20 06:31:43;;;;;;;;;;;;;;;;;;;;;
2023/08/20 06:34:13;;;;;;;12.23;11.05;;;;;;;-144.30;38.92;82801.16;5127713;27;20205;-46
2023/08/20 06:36:51;;;;;;;11.77;10.98;;;;;;;-144.30;38.53;82678.00;5130079;27;20208;-46
2023/08/20 06:39:53;;;;;;;16.30;14.60;;;;;;;-144.30;37.81;82668.06;5130455;27;20197;-47
2023/08/20 06:42:32;;;;;;;14.30;12.25;;;;;;;-144.30;37.54;82656.16;5120064;27;20244;-56
2023/08/20 06:45:07;;;;;;;14.32;11.77;;;;;;;-144.30;37.44;82604.50;5121359;27;20214;-46
2023/08/20 06:47:51;;;;;;;17.65;14.93;;;;;;;-144.30;37.42;82616.44;5129858;27;20293;-56
2023/08/20 06:50:47;;;;;;;14.32;12.60;;;;;;;-144.30;37.51;82624.38;5129741;27;20224;-46
2023/08/20 06:53:31;;;;;;;12.60;11.38;;;;;;;-144.30;37.51;82590.59;5128960;27;20194;-57
2023/08/20 06:59:16;;;;;;;14.05;12.68;;;;;;;-144.30;37.50;82515.13;5118270;27;20201;-56
2023/08/20 07:05:09;;;;;;;12.30;11.25;;;;;;;-144.30;36.04;82308.56;5109477;28;20202;-46
2023/08/20 07:07:54;;;;;;;12.48;11.27;;;;;;;-144.30;36.13;82320.47;5109346;28;20244;-56
2023/08/20 07:10:56;;;;;;;11.27;10.32;;;;;;;-144.30;35.64;82336.38;5108387;28;20198;-57
2023/08/20 07:14:06;;;;;;;22.27;16.88;;;;;;;-144.30;36.36;82415.81;5106905;28;20197;-47
2023/08/20 07:17:12;;;;;;;12.45;11.23;;;;;;;-144.30;36.36;82423.75;5109270;28;20225;-55
2023/08/20 07:20:21;;;;;;;11.95;10.82;;;;;;;-144.30;35.55;82245.00;5109012;28;20593;-45
2023/08/20 07:23:28;;;;;;;14.45;13.20;;;;;;;-144.30;33.92;82000.72;5087811;28;20206;-55
2023/08/20 07:26:28;;;;;;;11.00;10.20;;;;;;;-144.30;33.05;81808.09;5108098;28;20242;-56
2023/08/20 07:29:29;;;;;;;15.45;14.05;;;;;;;-144.30;32.21;81617.44;5107275;28;20198;-45
2023/08/20 07:32:32;;;;;;;10.25;9.50;;;;;;;-144.30;31.64;81490.34;5105112;28;20251;-46
2023/08/20 07:35:39;;;;;;;12.68;11.40;;;;;;;-144.30;30.01;81047.56;5106084;28;20326;-56
2023/08/20 07:41:58;;;;;;;11.77;10.85;;;;;;;-144.30;28.40;80678.31;5108252;28;20586;-55
2023/08/20 07:45:01;;;;;;;10.23;9.43;;;;;;;-144.30;28.19;80583.00;5104189;28;20300;-55
2023/08/20 07:48:07;;;;;;;11.52;10.43;;;;;;;-144.30;27.73;80481.78;5111883;28;20218;-57
2023/08/20 07:51:18;;;;;;;10.38;9.57;;;;;;;-144.30;28.05;80569.13;5113145;28;20231;-47
2023/08/20 08:00:26;;;;;;;12.88;11.85;;;;;;;-144.30;27.12;80239.59;5112469;28;20207;-56
2023/08/20 08:03:15;;;;;;;16.83;15.32;;;;;;;-144.30;26.52;80108.59;5112305;28;20281;-57
2023/08/20 08:12:32;;;;;;;10.52;9.73;;;;;;;-144.30;27.04;80438.09;5112043;28;20302;-47
2023/08/20 08:15:44;;;;;;;;;;;;;;;;;;;;;
2023/08/20 08:19:02;;;;;;;8.90;8.23;;;;;;;-144.30;26.46;80189.97;5112623;28;20194;-47
2023/08/20 08:22:08;;;;;;;14.65;11.73;;;;;;;-144.30;26.36;80152.25;5111705;28;20198;-46
2023/08/20 08:25:10;;;;;;;8.85;8.15;;;;;;;-144.30;25.95;80090.72;5112382;28;20229;-45
2023/08/20 08:30:38;;;;;;;9.63;8.57;;;;;;;-144.30;26.03;80267.38;5111029;28;20224;-47
2023/08/20 08:33:37;;;;;;;7.65;6.60;;;;;;;-144.30;26.79;80666.41;5112289;28;20201;-56
2023/08/20 08:39:46;;;;;;;8.18;7.45;;;;;;;-144.30;26.47;80632.66;5111829;28;20258;-56
2023/08/20 08:46:11;;;;;;;7.38;6.78;;;;;;;-144.30;25.91;80485.75;5109965;28;20603;-56
2023/08/20 08:52:30;;;;;;;7.97;7.38;;;;;;;-144.30;25.95;80394.44;5110322;28;20259;-56
2023/08/20 08:55:30;;;;;;;7.53;7.07;;;;;;;-144.30;25.85;80448.03;5108418;28;20194;-47
2023/08/20 09:07:49;;;;;;;8.95;8.20;;;;;;;-144.30;26.53;80557.22;5111675;28;20221;-56
2023/08/20 09:14:13;;;;;;;7.03;6.65;;;;;;;-144.30;27.16;81025.72;5111535;28;20190;-45
2023/08/20 09:17:39;;;;;;;7.78;7.00;;;;;;;-144.30;26.95;81017.78;5109625;28;20666;-56
2023/08/20 09:20:51;;;;;;;8.88;6.82;;;;;;;-144.30;26.72;80787.50;5109212;28;20232;-55
2023/08/20 09:23:57;;;;;;;10.00;7.22;;;;;;;-144.30;26.13;80525.44;5111462;28;20201;-46
2023/08/20 09:26:56;;;;;;;7.05;6.55;;;;;;;-144.30;26.07;80509.56;5106605;28;20222;-47
2023/08/20 09:30:10;;;;;;;7.05;6.63;;;;;;;-144.30;26.31;80616.75;5110579;28;20190;-45
2023/08/20 09:39:21;;;;;;;8.00;7.25;;;;;;;-144.30;25.50;80223.72;5111195;28;20194;-57
2023/08/20 09:44:49;;;;;;;7.30;6.90;;;;;;;-144.30;24.33;79538.97;5110761;28;20189;-55
2023/08/20 09:47:24;;;;;;;14.73;11.98;;;;;;;-144.30;24.11;79495.31;5120748;27;20286;-45
2023/08/20 09:49:59;;;;;;;8.35;7.65;;;;;;;-144.30;24.03;79409.97;5127319;27;20201;-46
2023/08/20 09:52:42;;;;;;;6.47;6.07;;;;;;;-144.30;24.15;79564.78;5130610;27;20653;-55
2023/08/20 09:55:33;;;;;;;6.97;6.25;;;;;;;-144.30;24.09;79640.19;5129180;27;20193;-45
2023/08/20 09:58:16;;;;;;;8.15;6.22;;;;;;;-144.30;23.92;79840.66;5130248;27;20268;-45
2023/08/20 10:00:51;;;;;;;6.57;6.18;;;;;;;-144.30;23.93;79854.53;5129099;27;20200;-45
2023/08/20 10:03:22;;;;;;;6.50;5.82;;;;;;;-144.30;23.98;79798.97;5129089;27;20649;-46
2023/08/20 10:05:53;;;;;;;6.93;6.43;;;;;;;-144.30;24.40;79933.94;5130905;27;20292;-55
2023/08/20 10:08:24;;;;;;;7.47;6.97;;;;;;;-144.30;24.26;79795.00;5130122;27;20291;-55
2023/08/20 10:10:58;;;;;;;7.28;6.25;;;;;;;-144.30;23.89;79612.41;5129793;27;20205;-56
2023/08/20 10:13:38;;;;;;;9.50;8.75;;;;;;;-144.30;23.84;79354.41;5130034;27;20197;-55
2023/08/20 10:16:06;;;;;;;6.05;5.45;;;;;;;-144.30;23.91;79425.88;5124836;27;20276;-46
2023/08/20 10:18:44;;;;;;;6.70;6.13;;;;;;;-144.30;23.77;79576.69;5128304;27;20209;-46
2023/08/20 10:21:34;;;;;;;6.93;6.28;;;;;;;-144.30;23.84;79703.69;5130079;27;20248;-56
2023/08/20 10:24:06;;;;;;;6.68;6.07;;;;;;;-144.30;24.28;80033.16;5127842;27;20198;-47
2023/08/20 10:26:52;;;;;;;7.13;6.68;;;;;;;-144.30;24.71;80231.66;5130174;27;20270;-56
2023/08/20 10:29:50;;;;;;;6.85;6.25;;;;;;;-144.30;25.46;80686.25;5127555;27;20280;-46
2023/08/20 10:32:17;;;;;;;6.95;6.38;;;;;;;-144.30;26.31;80974.13;5130327;27;20193;-46
2023/08/20 10:35:09;;;;;;;6.82;6.18;;;;;;;-144.30;26.60;81198.47;5130618;27;20284;-47
2023/08/20 10:38:12;;;;;;;9.30;8.50;;;;;;;-144.30;27.42;81498.31;5130256;27;20200;-56
2023/08/20 10:40:55;;;;;;;8.25;6.28;;;;;;;-144.30;27.90;81571.78;5125701;27;20204;-46
2023/08/20 10:43:29;;;;;;;8.20;7.28;;;;;;;-144.30;28.29;81688.94;5129990;27;20284;-56
2023/08/20 10:46:19;;;;;;;7.22;6.68;;;;;;;-144.30;28.56;81794.19;5128948;27;20209;-54
2023/08/20 10:48:54;;;;;;;7.53;6.93;;;;;;;-144.30;28.76;81770.34;5122314;27;20190;-55
2023/08/20 10:51:31;;;;;;;6.95;6.55;;;;;;;-144.30;28.95;81839.84;5129981;27;20200;-56
2023/08/20 10:54:09;;;;;;;7.93;7.13;;;;;;;-144.30;29.01;81891.50;5129247;27;20639;-55
2023/08/20 10:56:44;;;;;;;7.03;6.47;;;;;;;-144.30;29.15;81746.53;5129490;27;20186;-55
2023/08/20 10:59:15;;;;;;;7.60;6.18;;;;;;;-144.30;28.94;81827.94;5128061;27;20185;-46
2023/08/20 11:01:44;;;;;;;6.88;6.47;;;;;;;-144.30;28.83;81843.81;5129491;27;20280;-55
2023/08/20 11:04:18;;;;;;;7.45;6.75;;;;;;;-144.30;28.96;81818.00;5129625;27;20189;-56
2023/08/20 11:06:47;;;;;;;8.55;7.78;;;;;;;-144.30;29.21;81823.97;5129084;27;20597;-57
2023/08/20 11:09:19;;;;;;;9.10;8.38;;;;;;;-144.30;29.30;81792.19;5129299;27;20599;-56
2023/08/20 11:11:52;;;;;;;8.23;7.53;;;;;;;-144.30;29.26;81768.38;5123933;27;20198;-56
2023/08/20 11:14:26;;;;;;;7.20;6.65;;;;;;;-144.30;29.09;81829.94;5128856;27;20208;-56
2023/08/20 11:17:03;;;;;;;7.78;7.03;;;;;;;-144.30;29.12;81794.19;5127766;27;20638;-55
2023/08/20 11:19:41;;;;;;;6.78;6.20;;;;;;;-144.30;28.82;81825.94;5126049;27;20276;-55
2023/08/20 11:22:19;;;;;;;6.50;6.00;;;;;;;-144.30;28.97;81849.78;5127913;27;20284;-56
2023/08/20 11:24:55;;;;;;;7.00;6.60;;;;;;;-144.30;29.13;81865.66;5128177;28;20361;-56
2023/08/20 11:27:44;;;;;;;7.35;6.68;;;;;;;-144.30;29.04;81883.53;5129225;28;20270;-56
2023/08/20 11:30:21;;;;;;;8.65;6.82;;;;;;;-144.30;29.14;81927.22;5129305;28;20194;-56
2023/08/20 11:32:54;;;;;;;7.60;7.07;;;;;;;-144.30;29.29;81859.72;5129182;28;20204;-55
2023/08/20 11:35:33;;;;;;;9.02;6.80;;;;;;;-144.30;29.37;81897.44;5129538;28;20198;-45
2023/08/20 11:38:09;;;;;;;6.97;6.40;;;;;;;-144.30;29.06;81893.47;5129452;28;20557;-46
2023/08/20 11:40:40;;;;;;;10.68;6.53;;;;;;;-144.30;29.03;81877.59;5128832;28;20185;-56
2023/08/20 11:43:49;;;;;;;6.47;6.07;;;;;;;-144.30;28.96;81883.53;5128186;28;20648;-46
2023/08/20 11:46:21;;;;;;;8.80;6.90;;;;;;;-144.30;29.29;81820.00;5128783;28;20201;-55
2023/08/20 11:49:17;;;;;;;6.30;5.90;;;;;;;-144.30;29.19;81788.22;5129321;28;20226;-46
2023/08/20 11:52:07;;;;;;;6.75;6.25;;;;;;;-144.30;29.22;81839.84;5128721;28;20194;-55
2023/08/20 11:54:43;;;;;;;9.15;6.82;;;;;;;-144.30;29.45;81796.16;5129166;28;20197;-56
2023/08/20 11:57:14;;;;;;;6.50;5.82;;;;;;;-144.30;28.97;81831.91;5127748;28;20701;-56
2023/08/20 12:00:04;;;;;;;6.47;5.97;;;;;;;-144.30;29.24;81895.47;5129335;28;20684;-46
2023/08/20 12:02:59;;;;;;;6.75;6.22;;;;;;;-144.30;29.25;81939.16;5127921;28;20198;-55
2023/08/20 12:05:34;;;;;;;6.97;6.25;;;;;;;-144.30;29.34;81931.22;5128688;28;20681;-46
2023/08/20 12:08:16;;;;;;;6.40;6.00;;;;;;;-144.30;29.35;81966.94;5127969;28;20217;-46
2023/08/20 12:11:06;;;;;;;6.40;6.10;;;;;;;-144.30;29.67;81939.16;5128831;28;20198;-47
2023/08/20 12:13:37;;;;;;;7.18;6.47;;;;;;;-144.30;29.41;81955.03;5128809;28;20194;-56
2023/08/20 12:16:13;;;;;;;6.85;6.45;;;;;;;-144.30;29.38;81990.78;5129160;28;20194;-56
2023/08/20 12:18:52;;;;;;;7.30;5.88;;;;;;;-144.30;29.55;81962.97;5129000;28;20288;-46
2023/08/20 12:21:31;;;;;;;7.93;6.50;;;;;;;-144.30;29.72;82016.59;5128562;28;20194;-46
2023/08/20 12:26:56;;;;;;;6.95;6.57;;;;;;;-144.30;29.72;81996.75;5085125;28;20290;-46
2023/08/20 12:29:30;;;;;;;8.23;7.53;;;;;;;-144.30;29.88;81994.75;5087408;28;20199;-55
2023/08/20 12:32:09;;;;;;;6.03;5.40;;;;;;;-144.30;29.60;82038.44;5089723;28;20191;-55
2023/08/20 12:34:39;;;;;;;7.47;6.88;;;;;;;-144.30;29.62;82008.66;5091269;28;20636;-46
2023/08/20 12:37:20;;;;;;;7.63;6.93;;;;;;;-144.30;29.63;81970.94;5091088;28;20195;-56
2023/08/20 12:39:48;;;;;;;6.68;5.78;;;;;;;-144.30;29.71;82012.63;5090667;28;20270;-54
2023/08/20 12:42:23;;;;;;;7.05;6.47;;;;;;;-144.30;29.87;82058.31;5088680;28;20210;-46
2023/08/20 12:44:52;;;;;;;6.72;6.20;;;;;;;-144.30;30.45;82066.25;5084013;28;20222;-54
2023/08/20 12:47:30;;;;;;;7.95;6.82;;;;;;;-144.30;30.36;82092.06;5090953;28;20219;-46
2023/08/20 12:53:24;;;;;;;6.65;6.05;;;;;;;-144.30;30.53;82094.06;5090955;28;20195;-56
2023/08/20 12:55:58;;;;;;;7.60;7.03;;;;;;;-144.30;30.35;82070.22;5090200;28;20207;-49
2023/08/20 12:58:27;;;;;;;6.30;5.90;;;;;;;-144.30;30.05;82068.25;5083249;28;20195;-55
2023/08/20 13:00:59;;;;;;;6.65;6.15;;;;;;;-144.30;30.23;82042.41;5087869;28;20202;-56
2023/08/20 13:03:32;;;;;;;7.25;6.78;;;;;;;-144.30;29.91;82032.50;5090532;28;20744;-55
2023/08/20 13:06:26;;;;;;;6.32;5.93;;;;;;;-144.30;30.10;82082.13;5089018;28;20210;-56
2023/08/20 13:09:06;;;;;;;6.90;6.30;;;;;;;-144.30;30.35;82098.03;5088069;28;20588;-56
2023/08/20 13:11:53;;;;;;;7.05;6.43;;;;;;;-144.30;30.14;82090.09;5087875;28;20198;-56
2023/08/20 13:14:42;;;;;;;6.97;6.43;;;;;;;-144.30;30.21;82080.16;5089513;28;20275;-56
2023/08/20 13:17:21;;;;;;;6.43;5.93;;;;;;;-144.30;30.29;82096.03;5084617;28;20213;-55
2023/08/20 13:20:21;;;;;;;7.43;6.70;;;;;;;-144.30;30.16;82054.34;5090617;28;20199;-45
2023/08/20 13:23:05;;;;;;;6.10;5.57;;;;;;;-144.30;30.36;82111.94;5090427;28;20231;-47
2023/08/20 13:25:59;;;;;;;6.72;6.22;;;;;;;-144.30;30.43;82100.00;5114198;27;20233;-46
2023/08/20 13:28:37;;;;;;;6.40;5.90;;;;;;;-144.30;30.41;82084.13;5128162;27;20214;-55
2023/08/20 13:31:07;;;;;;;6.30;6.00;;;;;;;-144.30;30.11;82058.31;5125513;27;20217;-47
2023/08/20 13:34:10;;;;;;;7.60;5.55;;;;;;;-144.30;30.29;82141.72;5128215;27;20198;-46
2023/08/20 13:36:44;;;;;;;7.90;5.88;;;;;;;-144.30;30.37;82149.66;5130449;27;20217;-46
2023/08/20 13:39:21;;;;;;;5.90;5.30;;;;;;;-144.30;30.86;82137.75;5128981;27;20195;-55
2023/08/20 13:41:55;;;;;;;6.35;5.25;;;;;;;-144.30;30.31;82098.03;5131358;27;20280;-46
2023/08/20 13:44:51;;;;;;;6.93;5.57;;;;;;;-144.30;30.36;82129.81;5130800;27;20197;-46
2023/08/20 13:50:49;;;;;;;9.32;6.05;;;;;;;-144.30;30.23;82098.03;5109910;28;20201;-55
2023/08/20 13:53:55;;;;;;;9.85;5.60;;;;;;;-144.30;29.94;82102.00;5126034;27;20202;-56
2023/08/20 13:56:54;;;;;;;5.60;5.18;;;;;;;-144.30;30.16;82606.50;5131070;27;20194;-55
2023/08/20 13:59:36;;;;;;;6.10;5.60;;;;;;;-144.30;30.25;82105.97;5131569;27;20580;-55
2023/08/20 14:05:08;;;;;;;5.43;4.93;;;;;;;-144.30;29.92;82062.28;5128327;27;20701;-46
2023/08/20 14:08:11;;;;;;;7.00;6.40;;;;;;;-144.30;29.92;82090.09;5130588;27;20217;-55
2023/08/20 14:11:36;;;;;;;6.18;5.68;;;;;;;-144.30;30.32;82113.91;5128013;27;20200;-55
2023/08/20 14:20:57;;;;;;;7.20;5.85;;;;;;;-144.30;30.41;82082.13;5128839;27;20197;-46
2023/08/20 14:23:54;;;;;;;10.15;6.20;;;;;;;-144.30;30.06;82129.81;5130413;27;20212;-55
2023/08/20 14:26:56;;;;;;;6.10;5.50;;;;;;;-144.30;30.23;82149.66;5129762;27;20257;-55
2023/08/20 14:30:12;;;;;;;5.50;5.10;;;;;;;-144.30;30.04;82086.13;5130753;27;20655;-55
2023/08/20 14:33:10;;;;;;;8.05;5.72;;;;;;;-144.30;30.31;82104.00;5130362;27;20247;-46
2023/08/20 14:39:09;;;;;;;6.50;6.03;;;;;;;-144.30;30.43;82102.00;5129912;27;20233;-46
2023/08/20 14:42:21;;;;;;;7.70;6.47;;;;;;;-144.30;30.28;82070.22;5129468;27;20200;-45
2023/08/20 14:57:13;;;;;;;6.22;5.82;;;;;;;-144.30;30.50;82064.28;5122645;27;20652;-56
2023/08/20 15:15:09;;;;;;;6.50;5.80;;;;;;;-144.30;30.13;82125.84;5128609;27;20804;-47
2023/08/20 15:18:26;;;;;;;;;;;;;;;;;;;;;
2023/08/20 15:21:46;;;;;;;5.40;5.10;;;;;;;-144.30;30.46;82102.00;5120040;27;20204;-47
2023/08/20 15:24:50;;;;;;;5.55;5.18;;;;;;;-144.30;30.64;82133.78;5127989;27;20275;-47
2023/08/20 15:27:54;;;;;;;6.47;5.97;;;;;;;-144.30;30.67;82082.13;5088689;28;20209;-46
2023/08/20 15:34:14;;;;;;;6.00;5.55;;;;;;;-144.30;30.96;82117.88;5087460;28;20191;-55
2023/08/20 15:44:18;;;;;;;6.30;5.68;;;;;;;-144.30;31.59;82161.59;5086066;28;20278;-46
2023/08/20 15:47:20;;;;;;;;;;;;;;;;;;;;;
2023/08/20 15:50:01;;;;;;;7.45;6.63;;;;;;;-144.30;32.14;82197.34;5087595;28;20221;-56
2023/08/20 15:52:33;;;;;;;7.20;6.63;;;;;;;-144.30;32.44;82219.19;5088583;28;20278;-55
2023/08/20 15:55:13;;;;;;;7.53;5.80;;;;;;;-144.30;32.10;82284.72;5088329;28;20209;-55
2023/08/20 15:57:40;;;;;;;7.70;6.35;;;;;;;-144.30;31.89;82235.06;5084795;28;20818;-56